createdAt,value
2023-04-18T00:00:13.263Z,27.49
2023-04-18T00:01:13.255Z,29.28
2023-04-18T00:02:13.401Z,29.14
2023-04-18T00:03:13.556Z,30.85
2023-04-18T00:04:13.976Z,28.12
2023-04-18T00:05:13.459Z,25.78
2023-04-18T00:06:13.417Z,30.35
2023-04-18T00:07:13.452Z,28.93
2023-04-18T00:08:13.495Z,28.53
2023-04-18T00:09:13.532Z,29.70
2023-04-18T00:10:13.614Z,26.71
2023-04-18T00:11:13.578Z,27.73
2023-04-18T00:12:13.599Z,31.67
2023-04-18T00:13:13.680Z,29.35
2023-04-18T00:14:13.925Z,31.01
2023-04-18T00:15:13.750Z,29.98
2023-04-18T00:16:13.844Z,31.60
2023-04-18T00:17:13.898Z,31.83
2023-04-18T00:18:13.844Z,29.07
2023-04-18T00:19:13.935Z,26.78
2023-04-18T00:20:13.942Z,26.50
2023-04-18T00:21:13.961Z,28.58
2023-04-18T00:22:14.014Z,28.32
2023-04-18T00:23:14.194Z,28.49
2023-04-18T00:24:14.391Z,26.17
2023-04-18T00:25:14.214Z,29.59
2023-04-18T00:26:14.254Z,32.11
2023-04-18T00:27:14.265Z,30.76
2023-04-18T00:28:14.297Z,28.46
2023-04-18T00:29:14.411Z,29.99
2023-04-18T00:30:14.405Z,29.56
2023-04-18T00:31:14.510Z,28.57
2023-04-18T00:32:14.519Z,25.00
2023-04-18T00:33:14.555Z,30.68
2023-04-18T00:34:14.810Z,31.88
2023-04-18T00:35:14.665Z,25.68
2023-04-18T00:36:14.708Z,25.90
2023-04-18T00:37:14.740Z,28.05
2023-04-18T00:38:14.803Z,26.73
2023-04-18T00:39:14.856Z,27.67
2023-04-18T00:40:14.873Z,28.45
2023-04-18T00:41:14.932Z,28.38
2023-04-18T00:42:14.967Z,32.60
2023-04-18T00:43:15.060Z,25.93
2023-04-18T00:44:15.220Z,28.80
2023-04-18T00:45:15.185Z,27.33
2023-04-18T00:46:15.187Z,30.50
2023-04-18T00:47:15.221Z,29.58
2023-04-18T00:48:15.268Z,28.06
2023-04-18T00:49:15.340Z,28.32
2023-04-18T00:50:15.319Z,28.75
2023-04-18T00:51:15.376Z,26.77
2023-04-18T00:52:15.395Z,34.37
2023-04-18T00:53:15.398Z,30.59
2023-04-18T00:54:15.792Z,28.52
2023-04-18T00:55:15.513Z,29.27
2023-04-18T00:56:15.547Z,30.77
2023-04-18T00:57:15.622Z,28.73
2023-04-18T00:58:15.637Z,30.33
2023-04-18T00:59:15.740Z,29.95
2023-04-18T01:00:16.745Z,27.91
2023-04-18T01:01:15.806Z,26.90
2023-04-18T01:02:15.887Z,26.95
2023-04-18T01:03:16.011Z,27.65
2023-04-18T01:04:16.206Z,29.03
2023-04-18T01:05:15.945Z,29.58
2023-04-18T01:06:16.017Z,27.26
2023-04-18T01:07:16.019Z,27.82
2023-04-18T01:08:16.062Z,27.46
2023-04-18T01:09:16.133Z,25.50
2023-04-18T01:10:16.181Z,26.99
2023-04-18T01:11:16.202Z,28.63
2023-04-18T01:12:16.206Z,27.15
2023-04-18T01:13:16.254Z,29.98
2023-04-18T01:14:16.277Z,26.36
2023-04-18T01:15:16.282Z,27.65
2023-04-18T01:16:16.352Z,30.60
2023-04-18T01:17:16.312Z,27.64
2023-04-18T01:18:16.325Z,28.80
2023-04-18T01:19:16.361Z,33.37
2023-04-18T01:20:16.354Z,32.32
2023-04-18T01:21:16.371Z,28.46
2023-04-18T01:22:16.389Z,27.76
2023-04-18T01:23:16.421Z,25.21
2023-04-18T01:24:16.699Z,28.11
2023-04-18T01:25:16.460Z,30.97
2023-04-18T01:26:16.470Z,33.63
2023-04-18T01:27:16.490Z,31.46
2023-04-18T01:28:16.497Z,29.76
2023-04-18T01:29:16.544Z,28.21
2023-04-18T01:30:16.537Z,28.82
2023-04-18T01:31:16.546Z,30.81
2023-04-18T01:32:16.548Z,29.96
2023-04-18T01:33:16.531Z,27.07
2023-04-18T01:34:16.529Z,31.44
2023-04-18T01:35:16.542Z,30.87
2023-04-18T01:36:16.560Z,32.55
2023-04-18T01:37:16.613Z,31.02
2023-04-18T01:38:16.505Z,30.55
2023-04-18T01:39:16.523Z,28.77
2023-04-18T01:40:16.530Z,31.30
2023-04-18T01:41:16.521Z,32.44
2023-04-18T01:42:16.522Z,33.64
2023-04-18T01:43:16.511Z,31.57
2023-04-18T01:44:16.623Z,30.66
2023-04-18T01:45:16.560Z,27.73
2023-04-18T01:46:16.639Z,29.47
2023-04-18T01:47:16.605Z,31.48
2023-04-18T01:48:16.579Z,29.31
2023-04-18T01:49:16.618Z,27.61
2023-04-18T01:50:16.636Z,27.65
2023-04-18T01:51:16.639Z,28.09
2023-04-18T01:52:16.676Z,28.07
2023-04-18T01:53:16.649Z,30.01
2023-04-18T01:54:16.827Z,27.84
2023-04-18T01:55:16.688Z,28.52
2023-04-18T01:56:16.688Z,26.32
2023-04-18T01:57:16.700Z,30.08
2023-04-18T01:58:16.764Z,31.71
2023-04-18T01:59:16.767Z,31.59
2023-04-18T02:00:16.855Z,28.16
2023-04-18T02:01:16.846Z,29.25
2023-04-18T02:02:16.863Z,29.05
2023-04-18T02:03:16.921Z,28.24
2023-04-18T02:04:16.964Z,30.23
2023-04-18T02:05:16.845Z,28.67
2023-04-18T02:06:16.861Z,28.76
2023-04-18T02:07:16.849Z,31.75
2023-04-18T02:08:16.853Z,27.95
2023-04-18T02:09:16.884Z,27.70
2023-04-18T02:10:16.882Z,30.35
2023-04-18T02:11:16.907Z,28.32
2023-04-18T02:12:16.951Z,28.70
2023-04-18T02:13:16.972Z,27.72
2023-04-18T02:14:16.955Z,27.38
2023-04-18T02:15:17.004Z,28.45
2023-04-18T02:16:17.011Z,28.76
2023-04-18T02:17:16.991Z,29.91
2023-04-18T02:18:17.024Z,28.10
2023-04-18T02:19:17.005Z,31.09
2023-04-18T02:20:17.067Z,28.85
2023-04-18T02:21:17.077Z,30.83
2023-04-18T02:22:17.052Z,28.08
2023-04-18T02:23:17.079Z,28.70
2023-04-18T02:24:17.103Z,29.76
2023-04-18T02:25:17.146Z,29.72
2023-04-18T02:26:17.097Z,29.21
2023-04-18T02:27:17.125Z,31.37
2023-04-18T02:28:17.185Z,29.46
2023-04-18T02:29:17.156Z,28.77
2023-04-18T02:30:17.161Z,27.52
2023-04-18T02:31:17.208Z,29.38
2023-04-18T02:32:17.149Z,28.89
2023-04-18T02:33:17.178Z,25.20
2023-04-18T02:34:17.161Z,26.17
2023-04-18T02:35:17.138Z,29.56
2023-04-18T02:36:17.164Z,31.10
2023-04-18T02:37:17.162Z,32.36
2023-04-18T02:38:17.189Z,27.64
2023-04-18T02:39:17.200Z,28.76
2023-04-18T02:40:17.183Z,30.94
2023-04-18T02:41:17.159Z,31.37
2023-04-18T02:42:17.180Z,31.92
2023-04-18T02:43:17.163Z,29.96
2023-04-18T02:44:17.153Z,28.21
2023-04-18T02:45:17.173Z,29.80
2023-04-18T02:46:17.204Z,27.65
2023-04-18T02:47:17.116Z,29.27
2023-04-18T02:48:17.161Z,28.11
2023-04-18T02:49:17.144Z,30.71
2023-04-18T02:50:17.239Z,33.36
2023-04-18T02:51:17.093Z,29.43
2023-04-18T02:52:17.118Z,31.74
2023-04-18T02:53:17.130Z,28.07
2023-04-18T02:54:17.112Z,27.21
2023-04-18T02:55:17.121Z,29.68
2023-04-18T02:56:17.133Z,29.06
2023-04-18T02:57:17.082Z,26.60
2023-04-18T02:58:17.127Z,27.27
2023-04-18T02:59:17.097Z,26.09
2023-04-18T03:00:17.079Z,27.44
2023-04-18T03:01:17.182Z,28.05
2023-04-18T03:02:17.124Z,25.97
2023-04-18T03:03:17.148Z,30.61
2023-04-18T03:04:17.092Z,27.18
2023-04-18T03:05:17.084Z,29.55
2023-04-18T03:06:17.052Z,28.71
2023-04-18T03:07:17.065Z,27.72
2023-04-18T03:08:17.064Z,26.89
2023-04-18T03:09:17.045Z,30.36
2023-04-18T03:10:17.050Z,29.08
2023-04-18T03:11:17.039Z,30.41
2023-04-18T03:12:17.038Z,26.88
2023-04-18T03:13:17.079Z,26.69
2023-04-18T03:14:17.041Z,26.88
2023-04-18T03:15:17.021Z,28.55
2023-04-18T03:16:17.126Z,31.07
2023-04-18T03:17:17.032Z,28.94
2023-04-18T03:18:17.000Z,26.28
2023-04-18T03:19:17.033Z,28.28
2023-04-18T03:20:16.997Z,29.49
2023-04-18T03:21:16.995Z,30.53
2023-04-18T03:22:16.976Z,28.07
2023-04-18T03:23:16.991Z,30.60
2023-04-18T03:24:17.145Z,28.57
2023-04-18T03:25:16.975Z,33.05
2023-04-18T03:26:16.989Z,30.60
2023-04-18T03:27:16.944Z,30.81
2023-04-18T03:28:16.955Z,28.65
2023-04-18T03:29:16.964Z,29.15
2023-04-18T03:30:16.965Z,29.18
2023-04-18T03:31:16.938Z,28.90
2023-04-18T03:32:16.987Z,31.09
2023-04-18T03:33:16.960Z,28.17
2023-04-18T03:34:16.919Z,27.04
2023-04-18T03:35:16.930Z,29.78
2023-04-18T03:36:16.911Z,28.19
2023-04-18T03:37:16.892Z,31.04
2023-04-18T03:38:16.893Z,28.86
2023-04-18T03:39:16.890Z,28.62
2023-04-18T03:40:16.888Z,28.92
2023-04-18T03:41:16.891Z,30.39
2023-04-18T03:42:16.870Z,28.44
2023-04-18T03:43:16.859Z,29.18
2023-04-18T03:44:16.939Z,30.79
2023-04-18T03:45:16.878Z,24.37
2023-04-18T03:46:16.904Z,28.09
2023-04-18T03:47:16.906Z,30.52
2023-04-18T03:48:17.452Z,31.40
2023-04-18T03:49:16.847Z,28.79
2023-04-18T03:50:16.862Z,27.43
2023-04-18T03:51:16.844Z,30.13
2023-04-18T03:52:16.843Z,27.84
2023-04-18T03:53:16.858Z,28.08
2023-04-18T03:54:16.981Z,26.26
2023-04-18T03:55:16.845Z,29.50
2023-04-18T03:56:16.840Z,32.94
2023-04-18T03:57:16.824Z,33.01
2023-04-18T03:58:16.832Z,31.94
2023-04-18T03:59:16.813Z,32.90
2023-04-18T04:00:16.816Z,32.37
2023-04-18T04:01:16.839Z,32.69
2023-04-18T04:02:16.924Z,33.45
2023-04-18T04:03:16.995Z,31.99
2023-04-18T04:04:17.167Z,34.63
2023-04-18T04:05:16.828Z,31.40
2023-04-18T04:06:16.810Z,33.79
2023-04-18T04:07:16.798Z,35.43
2023-04-18T04:08:16.783Z,32.95
2023-04-18T04:09:16.779Z,30.69
2023-04-18T04:10:16.795Z,31.75
2023-04-18T04:11:16.807Z,31.24
2023-04-18T04:12:16.785Z,31.25
2023-04-18T04:13:16.766Z,32.18
2023-04-18T04:14:16.761Z,33.80
2023-04-18T04:15:16.772Z,32.98
2023-04-18T04:16:16.873Z,26.78
2023-04-18T04:17:16.791Z,33.87
2023-04-18T04:18:16.793Z,31.20
2023-04-18T04:19:16.785Z,31.67
2023-04-18T04:20:16.774Z,35.30
2023-04-18T04:21:17.112Z,31.06
2023-04-18T04:22:16.775Z,30.29
2023-04-18T04:23:16.764Z,33.12
2023-04-18T04:24:16.863Z,36.16
2023-04-18T04:25:16.766Z,30.90
2023-04-18T04:26:16.759Z,34.09
2023-04-18T04:27:16.750Z,32.76
2023-04-18T04:28:16.748Z,32.32
2023-04-18T04:29:16.734Z,30.87
2023-04-18T04:30:16.734Z,28.13
2023-04-18T04:31:16.812Z,30.25
2023-04-18T04:32:16.747Z,30.36
2023-04-18T04:33:16.729Z,29.74
2023-04-18T04:34:16.938Z,32.62
2023-04-18T04:35:16.733Z,28.17
2023-04-18T04:36:18.540Z,31.01
2023-04-18T04:37:16.707Z,30.03
2023-04-18T04:38:16.733Z,27.07
2023-04-18T04:39:16.716Z,29.63
2023-04-18T04:40:16.702Z,28.06
2023-04-18T04:41:16.688Z,32.52
2023-04-18T04:42:16.756Z,32.08
2023-04-18T04:43:16.687Z,28.22
2023-04-18T04:44:16.775Z,33.03
2023-04-18T04:45:16.689Z,30.65
2023-04-18T04:46:16.717Z,28.17
2023-04-18T04:47:16.669Z,26.95
2023-04-18T04:48:16.707Z,27.51
2023-04-18T04:49:17.440Z,32.91
2023-04-18T04:50:16.697Z,32.58
2023-04-18T04:51:16.697Z,30.18
2023-04-18T04:52:16.720Z,27.61
2023-04-18T04:53:16.702Z,26.95
2023-04-18T04:54:16.926Z,26.42
2023-04-18T04:55:16.690Z,25.98
2023-04-18T04:56:16.699Z,26.36
2023-04-18T04:57:16.705Z,27.38
2023-04-18T04:58:16.702Z,28.29
2023-04-18T04:59:16.696Z,28.54
2023-04-18T05:00:16.712Z,33.03
2023-04-18T05:01:16.702Z,26.88
2023-04-18T05:02:16.771Z,28.37
2023-04-18T05:03:16.825Z,26.28
2023-04-18T05:04:16.909Z,25.45
2023-04-18T05:05:16.709Z,26.90
2023-04-18T05:06:16.690Z,28.37
2023-04-18T05:07:16.711Z,26.80
2023-04-18T05:08:16.684Z,31.95
2023-04-18T05:09:16.702Z,28.99
2023-04-18T05:10:16.678Z,29.51
2023-04-18T05:11:16.702Z,32.21
2023-04-18T05:12:16.700Z,30.08
2023-04-18T05:13:16.695Z,29.24
2023-04-18T05:14:16.750Z,30.21
2023-04-18T05:15:16.705Z,28.63
2023-04-18T05:16:16.713Z,30.20
2023-04-18T05:17:16.666Z,30.57
2023-04-18T05:18:16.678Z,32.16
2023-04-18T05:19:16.654Z,31.45
2023-04-18T05:20:16.692Z,33.21
2023-04-18T05:21:16.680Z,27.59
2023-04-18T05:22:16.657Z,28.31
2023-04-18T05:23:16.667Z,29.31
2023-04-18T05:24:16.882Z,25.63
2023-04-18T05:25:16.664Z,30.21
2023-04-18T05:26:16.678Z,31.84
2023-04-18T05:27:18.122Z,36.19
2023-04-18T05:28:16.669Z,32.67
2023-04-18T05:29:16.652Z,37.92
2023-04-18T05:30:16.721Z,35.09
2023-04-18T05:31:16.738Z,31.21
2023-04-18T05:32:16.662Z,30.35
2023-04-18T05:33:16.674Z,30.15
2023-04-18T05:34:16.753Z,30.99
2023-04-18T05:35:16.662Z,31.47
2023-04-18T05:36:16.671Z,30.43
2023-04-18T05:37:16.666Z,27.67
2023-04-18T05:38:16.671Z,28.52
2023-04-18T05:39:16.681Z,30.58
2023-04-18T05:40:16.848Z,29.55
2023-04-18T05:41:16.684Z,30.66
2023-04-18T05:42:16.673Z,27.14
2023-04-18T05:43:16.691Z,32.05
2023-04-18T05:44:16.660Z,37.87
2023-04-18T05:45:16.661Z,44.03
2023-04-18T05:46:16.712Z,53.64
2023-04-18T05:47:16.692Z,57.37
2023-04-18T05:48:16.727Z,61.65
2023-04-18T05:49:16.794Z,65.03
2023-04-18T05:50:16.813Z,69.86
2023-04-18T05:51:16.822Z,75.38
2023-04-18T05:52:16.907Z,86.14
2023-04-18T05:53:16.949Z,85.05
2023-04-18T05:54:17.012Z,94.43
2023-04-18T05:55:17.078Z,96.57
2023-04-18T05:56:17.091Z,107.99
2023-04-18T05:57:17.169Z,114.08
2023-04-18T05:58:17.214Z,119.89
2023-04-18T05:59:17.280Z,132.42
2023-04-18T06:00:17.416Z,140.95
2023-04-18T06:01:17.367Z,149.93
2023-04-18T06:02:17.512Z,160.10
2023-04-18T06:03:17.697Z,170.53
2023-04-18T06:04:17.921Z,179.23
2023-04-18T06:05:18.003Z,189.19
2023-04-18T06:06:17.541Z,196.21
2023-04-18T06:07:17.555Z,205.41
2023-04-18T06:08:17.597Z,211.06
2023-04-18T06:09:17.648Z,216.95
2023-04-18T06:10:17.668Z,221.28
2023-04-18T06:11:17.709Z,229.87
2023-04-18T06:12:17.718Z,235.71
2023-04-18T06:13:17.758Z,239.55
2023-04-18T06:14:17.795Z,238.22
2023-04-18T06:15:17.829Z,244.02
2023-04-18T06:16:17.879Z,248.20
2023-04-18T06:17:17.893Z,246.15
2023-04-18T06:18:17.922Z,248.63
2023-04-18T06:19:17.958Z,245.33
2023-04-18T06:20:18.061Z,244.39
2023-04-18T06:21:18.082Z,245.03
2023-04-18T06:22:18.124Z,246.25
2023-04-18T06:23:18.142Z,239.11
2023-04-18T06:24:18.228Z,239.32
2023-04-18T06:25:18.261Z,236.50
2023-04-18T06:26:18.314Z,229.47
2023-04-18T06:27:30.456Z,230.04
2023-04-18T06:28:19.332Z,230.31
2023-04-18T06:29:18.346Z,230.43
2023-04-18T06:30:18.347Z,229.60
2023-04-18T06:31:18.383Z,219.96
2023-04-18T06:32:18.362Z,216.12
2023-04-18T06:33:18.320Z,219.72
2023-04-18T06:34:18.405Z,216.07
2023-04-18T06:35:18.300Z,220.61
2023-04-18T06:36:18.313Z,213.67
2023-04-18T06:37:18.268Z,215.39
2023-04-18T06:38:18.307Z,213.71
2023-04-18T06:39:18.305Z,218.55
2023-04-18T06:40:18.343Z,216.18
2023-04-18T06:41:18.400Z,217.73
2023-04-18T06:42:19.641Z,221.25
2023-04-18T06:43:18.491Z,223.11
2023-04-18T06:44:18.505Z,226.80
2023-04-18T06:45:18.875Z,242.16
2023-04-18T06:46:18.600Z,250.22
2023-04-18T06:47:18.564Z,248.94
2023-04-18T06:48:18.574Z,250.00
2023-04-18T06:49:18.598Z,248.61
2023-04-18T06:50:18.590Z,248.14
2023-04-18T06:51:18.618Z,248.69
2023-04-18T06:52:18.617Z,248.89
2023-04-18T06:53:18.610Z,248.00
2023-04-18T06:54:18.629Z,247.30
2023-04-18T06:55:18.615Z,248.70
2023-04-18T06:56:19.327Z,245.77
2023-04-18T06:57:18.580Z,248.77
2023-04-18T06:58:18.603Z,246.59
2023-04-18T06:59:18.563Z,250.00
2023-04-18T07:00:18.614Z,247.19
2023-04-18T07:01:18.588Z,247.09
2023-04-18T07:02:18.731Z,249.41
2023-04-18T07:03:18.785Z,249.93
2023-04-18T07:04:19.101Z,249.87
2023-04-18T07:05:18.635Z,247.91
2023-04-18T07:06:18.675Z,249.34
2023-04-18T07:07:18.721Z,247.05
2023-04-18T07:08:18.741Z,249.08
2023-04-18T07:09:18.813Z,250.00
2023-04-18T07:10:18.890Z,248.90
2023-04-18T07:11:18.911Z,249.03
2023-04-18T07:12:18.997Z,248.24
2023-04-18T07:13:19.040Z,247.61
2023-04-18T07:14:19.086Z,250.09
2023-04-18T07:15:19.170Z,248.34
2023-04-18T07:16:19.245Z,247.96
2023-04-18T07:17:19.326Z,247.89
2023-04-18T07:18:30.227Z,249.16
2023-04-18T07:19:20.313Z,249.27
2023-04-18T07:20:19.319Z,249.46
2023-04-18T07:21:19.309Z,250.23
2023-04-18T07:22:19.297Z,252.30
2023-04-18T07:23:19.281Z,257.02
2023-04-18T07:24:19.290Z,249.14
2023-04-18T07:25:19.350Z,249.27
2023-04-18T07:26:19.266Z,247.46
2023-04-18T07:27:19.250Z,249.49
2023-04-18T07:28:19.317Z,249.64
2023-04-18T07:29:19.391Z,249.57
2023-04-18T07:30:19.448Z,248.95
2023-04-18T07:31:19.578Z,248.11
2023-04-18T07:32:19.523Z,250.00
2023-04-18T07:33:19.540Z,249.62
2023-04-18T07:34:19.610Z,250.00
2023-04-18T07:35:19.627Z,249.79
2023-04-18T07:36:19.703Z,246.73
2023-04-18T07:37:19.722Z,248.90
2023-04-18T07:38:20.457Z,249.30
2023-04-18T07:39:19.856Z,248.91
2023-04-18T07:40:19.880Z,248.47
2023-04-18T07:41:19.896Z,249.32
2023-04-18T07:42:19.985Z,247.92
2023-04-18T07:43:20.870Z,249.72
2023-04-18T07:44:19.992Z,249.30
2023-04-18T07:45:20.393Z,249.64
2023-04-18T07:46:20.123Z,249.65
2023-04-18T07:47:22.331Z,249.65
2023-04-18T07:48:20.211Z,248.09
2023-04-18T07:49:20.173Z,243.98
2023-04-18T07:50:20.407Z,204.77
2023-04-18T07:51:20.241Z,169.87
2023-04-18T07:52:20.268Z,154.87
2023-04-18T07:53:20.354Z,139.15
2023-04-18T07:54:20.507Z,137.83
2023-04-18T07:55:20.452Z,142.13
2023-04-18T07:56:20.440Z,143.58
2023-04-18T07:57:20.403Z,166.60
2023-04-18T07:58:20.369Z,162.87
2023-04-18T07:59:20.352Z,173.35
2023-04-18T08:00:20.391Z,170.53
2023-04-18T08:01:20.420Z,168.40
2023-04-18T08:02:20.501Z,169.02
2023-04-18T08:03:20.753Z,172.11
2023-04-18T08:04:20.666Z,173.91
2023-04-18T08:05:20.707Z,177.05
2023-04-18T08:06:20.708Z,178.39
2023-04-18T08:07:20.753Z,180.19
2023-04-18T08:08:20.803Z,183.62
2023-04-18T08:09:20.840Z,186.64
2023-04-18T08:10:22.479Z,185.90
2023-04-18T08:11:20.896Z,190.31
2023-04-18T08:12:20.805Z,193.35
2023-04-18T08:13:20.817Z,195.29
2023-04-18T08:14:20.835Z,199.20
2023-04-18T08:15:20.814Z,200.97
2023-04-18T08:16:20.815Z,203.49
2023-04-18T08:17:20.813Z,208.63
2023-04-18T08:18:20.792Z,211.90
2023-04-18T08:19:20.822Z,214.49
2023-04-18T08:20:20.869Z,217.32
2023-04-18T08:21:20.753Z,218.99
2023-04-18T08:22:20.762Z,222.14
2023-04-18T08:23:20.763Z,224.52
2023-04-18T08:24:20.736Z,226.62
2023-04-18T08:25:20.726Z,230.02
2023-04-18T08:26:21.030Z,233.35
2023-04-18T08:27:20.698Z,235.78
2023-04-18T08:28:20.705Z,239.47
2023-04-18T08:29:20.685Z,241.57
2023-04-18T08:30:20.693Z,243.51
2023-04-18T08:31:20.754Z,248.11
2023-04-18T08:32:20.739Z,248.80
2023-04-18T08:33:20.688Z,249.10
2023-04-18T08:34:20.693Z,248.94
2023-04-18T08:35:20.644Z,250.00
2023-04-18T08:36:20.907Z,249.63
2023-04-18T08:37:20.647Z,250.00
2023-04-18T08:38:20.644Z,249.86
2023-04-18T08:39:20.632Z,249.79
2023-04-18T08:40:20.634Z,249.39
2023-04-18T08:41:20.949Z,250.00
2023-04-18T08:42:20.656Z,250.00
2023-04-18T08:43:20.603Z,248.81
2023-04-18T08:44:20.580Z,249.85
2023-04-18T08:45:20.590Z,248.56
2023-04-18T08:46:20.946Z,249.70
2023-04-18T08:47:20.588Z,248.82
2023-04-18T08:48:20.574Z,249.12
2023-04-18T08:49:20.586Z,249.45
2023-04-18T08:50:20.582Z,249.44
2023-04-18T08:51:20.902Z,249.45
2023-04-18T08:52:20.553Z,247.48
2023-04-18T08:53:20.565Z,219.21
2023-04-18T08:54:20.517Z,219.22
2023-04-18T08:55:20.536Z,199.45
2023-04-18T08:56:20.502Z,200.79
2023-04-18T08:57:20.510Z,177.56
2023-04-18T08:58:20.708Z,143.15
2023-04-18T08:59:20.496Z,136.56
2023-04-18T09:00:20.499Z,123.31
2023-04-18T09:01:20.597Z,136.28
2023-04-18T09:02:20.534Z,89.16
2023-04-18T09:03:20.544Z,116.20
2023-04-18T09:04:20.521Z,112.40
2023-04-18T09:05:20.462Z,129.70
2023-04-18T09:06:20.476Z,140.99
2023-04-18T09:07:20.428Z,140.36
2023-04-18T09:08:20.445Z,141.30
2023-04-18T09:09:20.410Z,141.80
2023-04-18T09:10:20.410Z,142.54
2023-04-18T09:11:20.431Z,140.74
2023-04-18T09:12:20.407Z,139.17
2023-04-18T09:13:20.433Z,140.73
2023-04-18T09:14:20.394Z,140.52
2023-04-18T09:15:20.372Z,139.30
2023-04-18T09:16:20.428Z,140.24
2023-04-18T09:17:20.363Z,140.63
2023-04-18T09:18:20.378Z,141.70
2023-04-18T09:19:20.342Z,134.07
2023-04-18T09:20:20.333Z,139.37
2023-04-18T09:21:20.400Z,138.50
2023-04-18T09:22:20.458Z,140.60
2023-04-18T09:23:20.445Z,140.31
2023-04-18T09:24:20.462Z,141.68
2023-04-18T09:25:20.516Z,143.31
2023-04-18T09:26:20.889Z,140.84
2023-04-18T09:27:20.540Z,140.05
2023-04-18T09:28:20.572Z,141.46
2023-04-18T09:29:20.627Z,140.89
2023-04-18T09:30:20.632Z,139.34
2023-04-18T09:31:20.957Z,139.00
2023-04-18T09:32:20.764Z,139.16
2023-04-18T09:33:20.700Z,139.64
2023-04-18T09:34:20.757Z,137.84
2023-04-18T09:35:20.753Z,130.70
2023-04-18T09:36:21.042Z,133.47
2023-04-18T09:37:20.826Z,136.65
2023-04-18T09:38:20.854Z,138.41
2023-04-18T09:39:20.881Z,137.25
2023-04-18T09:40:20.891Z,139.42
2023-04-18T09:41:21.627Z,137.98
2023-04-18T09:42:20.910Z,139.01
2023-04-18T09:43:20.940Z,137.30
2023-04-18T09:44:21.138Z,139.05
2023-04-18T09:45:20.971Z,139.79
2023-04-18T09:46:21.658Z,140.28
2023-04-18T09:47:21.072Z,126.85
2023-04-18T09:48:21.097Z,122.30
2023-04-18T09:49:21.151Z,114.66
2023-04-18T09:50:21.150Z,99.37
2023-04-18T09:51:21.437Z,87.12
2023-04-18T09:52:21.248Z,74.17
2023-04-18T09:53:21.322Z,66.58
2023-04-18T09:54:21.363Z,65.62
2023-04-18T09:55:21.438Z,67.54
2023-04-18T09:56:21.520Z,61.59
2023-04-18T09:57:21.555Z,58.89
2023-04-18T09:58:21.623Z,50.98
2023-04-18T09:59:21.690Z,49.80
2023-04-18T10:00:21.718Z,51.52
2023-04-18T10:01:21.846Z,50.46
2023-04-18T10:02:21.990Z,51.00
2023-04-18T10:03:22.028Z,34.86
2023-04-18T10:04:21.961Z,36.02
2023-04-18T10:05:21.989Z,28.27
2023-04-18T10:06:21.981Z,38.59
2023-04-18T10:07:22.015Z,32.29
2023-04-18T10:08:22.045Z,21.86
2023-04-18T10:09:22.062Z,26.98
2023-04-18T10:10:22.013Z,42.82
2023-04-18T10:11:22.068Z,33.72
2023-04-18T10:12:22.016Z,41.36
2023-04-18T10:13:22.065Z,28.39
2023-04-18T10:14:22.021Z,43.34
2023-04-18T10:15:22.041Z,30.26
2023-04-18T10:16:22.094Z,25.18
2023-04-18T10:17:22.061Z,32.10
2023-04-18T10:18:22.090Z,38.37
2023-04-18T10:19:22.010Z,39.51
2023-04-18T10:20:22.022Z,32.37
2023-04-18T10:21:22.025Z,25.69
2023-04-18T10:22:22.012Z,23.16
2023-04-18T10:23:22.031Z,39.91
2023-04-18T10:24:22.052Z,37.52
2023-04-18T10:25:22.024Z,49.01
2023-04-18T10:26:22.047Z,42.00
2023-04-18T10:27:22.074Z,41.92
2023-04-18T10:28:22.046Z,36.54
2023-04-18T10:29:22.069Z,33.41
2023-04-18T10:30:22.096Z,28.80
2023-04-18T10:31:22.176Z,45.96
2023-04-18T10:32:22.128Z,53.08
2023-04-18T10:33:30.423Z,49.03
2023-04-18T10:34:23.195Z,35.80
2023-04-18T10:35:22.101Z,39.91
2023-04-18T10:36:22.433Z,48.71
2023-04-18T10:37:22.107Z,52.86
2023-04-18T10:38:22.086Z,65.76
2023-04-18T10:39:22.056Z,70.16
2023-04-18T10:40:22.033Z,78.90
2023-04-18T10:41:22.434Z,85.05
2023-04-18T10:42:22.056Z,90.81
2023-04-18T10:43:22.037Z,95.13
2023-04-18T10:44:22.037Z,100.82
2023-04-18T10:45:22.049Z,108.03
2023-04-18T10:46:31.801Z,114.97
2023-04-18T10:47:23.146Z,115.27
2023-04-18T10:48:22.095Z,116.97
2023-04-18T10:49:24.482Z,120.61
2023-04-18T10:50:22.146Z,115.75
2023-04-18T10:51:22.071Z,118.53
2023-04-18T10:52:22.065Z,124.90
2023-04-18T10:53:22.051Z,135.05
2023-04-18T10:54:22.059Z,150.18
2023-04-18T10:55:22.027Z,156.08
2023-04-18T10:56:22.069Z,159.32
2023-04-18T10:57:22.000Z,162.83
2023-04-18T10:58:22.017Z,166.93
2023-04-18T10:59:21.994Z,169.36
2023-04-18T11:00:22.128Z,173.49
2023-04-18T11:01:22.074Z,176.02
2023-04-18T11:02:22.500Z,177.49
2023-04-18T11:03:22.102Z,181.35
2023-04-18T11:04:22.010Z,185.42
2023-04-18T11:05:22.046Z,194.02
2023-04-18T11:06:21.996Z,195.27
2023-04-18T11:07:21.970Z,197.86
2023-04-18T11:08:21.940Z,199.35
2023-04-18T11:09:21.933Z,203.51
2023-04-18T11:10:21.948Z,205.76
2023-04-18T11:11:21.923Z,208.61
2023-04-18T11:12:21.921Z,210.14
2023-04-18T11:13:21.985Z,212.30
2023-04-18T11:14:21.877Z,216.81
2023-04-18T11:15:22.037Z,221.11
2023-04-18T11:16:21.934Z,223.81
2023-04-18T11:17:21.886Z,223.69
2023-04-18T11:18:21.887Z,226.14
2023-04-18T11:19:21.848Z,228.87
2023-04-18T11:20:21.864Z,231.84
2023-04-18T11:21:21.833Z,232.08
2023-04-18T11:22:22.078Z,234.66
2023-04-18T11:23:21.820Z,236.06
2023-04-18T11:24:21.820Z,238.01
2023-04-18T11:25:21.815Z,240.65
2023-04-18T11:26:22.381Z,242.11
2023-04-18T11:27:21.964Z,245.90
2023-04-18T11:28:21.838Z,250.00
2023-04-18T11:29:21.783Z,249.74
2023-04-18T11:30:21.813Z,249.72
2023-04-18T11:31:21.808Z,249.37
2023-04-18T11:32:22.106Z,250.00
2023-04-18T11:33:21.761Z,250.00
2023-04-18T11:34:21.757Z,249.60
2023-04-18T11:35:21.752Z,250.00
2023-04-18T11:36:21.776Z,249.60
2023-04-18T11:37:21.989Z,247.37
2023-04-18T11:38:23.315Z,247.51
2023-04-18T11:39:21.970Z,246.02
2023-04-18T11:40:22.005Z,243.08
2023-04-18T11:41:22.012Z,242.30
2023-04-18T11:42:22.062Z,241.02
2023-04-18T11:43:22.076Z,239.94
2023-04-18T11:44:22.052Z,238.88
2023-04-18T11:45:22.064Z,237.93
2023-04-18T11:46:22.092Z,237.93
2023-04-18T11:47:22.089Z,235.70
2023-04-18T11:48:22.039Z,232.84
2023-04-18T11:49:22.036Z,228.06
2023-04-18T11:50:22.039Z,228.08
2023-04-18T11:51:22.045Z,226.52
2023-04-18T11:52:22.072Z,221.20
2023-04-18T11:53:22.059Z,207.71
2023-04-18T11:54:22.076Z,176.39
2023-04-18T11:55:22.073Z,168.03
2023-04-18T11:56:22.076Z,161.79
2023-04-18T11:57:22.487Z,151.23
2023-04-18T11:58:22.112Z,131.15
2023-04-18T11:59:22.132Z,116.41
2023-04-18T12:00:22.160Z,112.22
2023-04-18T12:01:22.234Z,114.56
2023-04-18T12:02:22.496Z,114.82
2023-04-18T12:03:22.222Z,114.70
2023-04-18T12:04:22.444Z,116.23
2023-04-18T12:05:22.373Z,116.39
2023-04-18T12:06:22.199Z,115.15
2023-04-18T12:07:22.154Z,116.21
2023-04-18T12:08:22.145Z,113.92
2023-04-18T12:09:22.119Z,112.61
2023-04-18T12:10:22.125Z,111.87
2023-04-18T12:11:22.143Z,114.26
2023-04-18T12:12:22.120Z,115.67
2023-04-18T12:13:22.112Z,115.72
2023-04-18T12:14:22.150Z,116.84
2023-04-18T12:15:22.099Z,115.94
2023-04-18T12:16:22.137Z,114.83
2023-04-18T12:17:22.142Z,114.83
2023-04-18T12:18:22.130Z,115.95
2023-04-18T12:19:22.125Z,117.62
2023-04-18T12:20:22.169Z,117.92
2023-04-18T12:21:22.216Z,119.38
2023-04-18T12:22:22.214Z,118.87
2023-04-18T12:23:22.221Z,120.31
2023-04-18T12:24:22.231Z,120.77
2023-04-18T12:25:25.008Z,121.61
2023-04-18T12:26:22.244Z,121.68
2023-04-18T12:27:22.216Z,122.08
2023-04-18T12:28:22.218Z,121.91
2023-04-18T12:29:22.208Z,121.74
2023-04-18T12:30:22.214Z,122.05
2023-04-18T12:31:22.228Z,123.41
2023-04-18T12:32:22.243Z,122.91
2023-04-18T12:33:22.187Z,122.60
2023-04-18T12:34:22.193Z,121.73
2023-04-18T12:35:22.151Z,123.05
2023-04-18T12:36:22.177Z,124.24
2023-04-18T12:37:22.157Z,124.20
2023-04-18T12:38:22.168Z,123.27
2023-04-18T12:39:22.147Z,123.22
2023-04-18T12:40:22.118Z,123.32
2023-04-18T12:41:22.093Z,122.94